createdAt,value
2022-10-22T00:02:24.306Z,97788.34
2022-10-22T00:04:51.455Z,97796.34
2022-10-22T00:07:19.480Z,97804.50
2022-10-22T00:09:47.064Z,97807.47
2022-10-22T00:12:15.732Z,97800.09
2022-10-22T00:14:43.300Z,97795.94
2022-10-22T00:17:11.561Z,97791.75
2022-10-22T00:19:39.386Z,97801.53
2022-10-22T00:22:07.095Z,97796.72
2022-10-22T00:24:35.699Z,97795.06
2022-10-22T00:27:03.065Z,97792.25
2022-10-22T00:29:30.997Z,97774.63
2022-10-22T00:31:57.730Z,97785.47
2022-10-22T00:34:24.996Z,97773.22
2022-10-22T00:36:52.131Z,97778.53
2022-10-22T00:39:21.227Z,97777.19
2022-10-22T00:41:50.104Z,97779.63
2022-10-22T00:45:14.009Z,97794.03
2022-10-22T00:47:49.977Z,97789.69
2022-10-22T00:50:22.272Z,97792.47
2022-10-22T00:52:50.033Z,97790.19
2022-10-22T00:55:18.474Z,97793.69
2022-10-22T00:57:46.447Z,97787.16
2022-10-22T01:00:13.630Z,97786.63
2022-10-22T01:02:40.510Z,97783.97
2022-10-22T01:05:07.663Z,97791.00
2022-10-22T01:07:40.891Z,97780.56
2022-10-22T01:10:18.023Z,97791.00
2022-10-22T01:12:58.030Z,97792.28
2022-10-22T01:15:30.664Z,97776.50
2022-10-22T01:18:00.433Z,97772.59
2022-10-22T01:20:56.397Z,97773.00
2022-10-22T01:23:48.242Z,97757.50
2022-10-22T01:29:12.273Z,97752.22
2022-10-22T01:31:44.975Z,97758.63
2022-10-22T01:34:14.254Z,97760.28
2022-10-22T01:36:42.188Z,97741.97
2022-10-22T01:39:10.375Z,97735.91
2022-10-22T01:41:39.772Z,97734.91
2022-10-22T01:44:07.053Z,97747.50
2022-10-22T01:46:34.272Z,97736.91
2022-10-22T01:49:24.997Z,97748.81
2022-10-22T01:52:06.936Z,97751.72
2022-10-22T01:54:36.361Z,97746.19
2022-10-22T01:57:16.867Z,97750.78
2022-10-22T02:00:05.650Z,97755.38
2022-10-22T02:02:58.641Z,97755.13
2022-10-22T02:05:41.767Z,97740.97
2022-10-22T02:08:14.985Z,97739.13
2022-10-22T02:10:45.468Z,97744.19
2022-10-22T02:13:19.426Z,97741.09
2022-10-22T02:15:48.877Z,97742.25
2022-10-22T02:18:18.887Z,97737.69
2022-10-22T02:20:45.821Z,97734.28
2022-10-22T02:23:13.251Z,97748.84
2022-10-22T02:25:42.753Z,97748.41
2022-10-22T02:28:24.007Z,97750.09
2022-10-22T02:31:00.825Z,97749.81
2022-10-22T02:33:35.946Z,97743.34
2022-10-22T02:36:04.428Z,97741.72
2022-10-22T02:38:33.691Z,97764.28
2022-10-22T02:41:00.587Z,97757.69
2022-10-22T02:43:29.044Z,97754.19
2022-10-22T02:45:55.717Z,97750.41
2022-10-22T02:48:22.516Z,97746.22
2022-10-22T02:50:49.253Z,97747.19
2022-10-22T02:53:15.957Z,97741.75
2022-10-22T02:55:42.633Z,97748.31
2022-10-22T02:58:09.146Z,97762.56
2022-10-22T03:00:35.862Z,97759.09
2022-10-22T03:03:02.511Z,97751.09
2022-10-22T03:05:29.025Z,97775.59
2022-10-22T03:07:56.061Z,97778.94
2022-10-22T03:10:22.781Z,97773.50
2022-10-22T03:12:49.302Z,97786.06
2022-10-22T03:15:16.046Z,97788.16
2022-10-22T03:17:42.922Z,97784.53
2022-10-22T03:20:09.985Z,97782.19
2022-10-22T03:22:40.806Z,97784.38
2022-10-22T03:25:12.437Z,97781.88
2022-10-22T03:27:41.257Z,97762.75
2022-10-22T03:30:09.109Z,97758.94
2022-10-22T03:32:35.706Z,97754.44
2022-10-22T03:35:02.345Z,97771.06
2022-10-22T03:37:30.243Z,97780.72
2022-10-22T03:39:57.348Z,97771.91
2022-10-22T03:42:25.161Z,97764.91
2022-10-22T03:44:52.685Z,97756.13
2022-10-22T03:47:19.398Z,97750.53
2022-10-22T03:49:46.093Z,97759.34
2022-10-22T03:52:15.145Z,97767.31
2022-10-22T03:54:42.825Z,97770.72
2022-10-22T03:57:10.498Z,97776.97
2022-10-22T03:59:39.412Z,97782.53
2022-10-22T04:02:07.460Z,97777.34
2022-10-22T04:04:34.235Z,97787.31
2022-10-22T04:07:00.876Z,97797.81
2022-10-22T04:09:27.395Z,97812.78
2022-10-22T04:11:54.098Z,97817.78
2022-10-22T04:14:20.770Z,97803.69
2022-10-22T04:16:47.393Z,97806.78
2022-10-22T04:19:14.062Z,97805.78
2022-10-22T04:21:40.725Z,97802.44
2022-10-22T04:24:07.326Z,97810.13
2022-10-22T04:26:34.122Z,97819.38
2022-10-22T04:29:00.947Z,97802.88
2022-10-22T04:31:27.985Z,97797.53
2022-10-22T04:33:57.011Z,97807.31
2022-10-22T04:36:25.084Z,97808.28
2022-10-22T04:38:57.989Z,97811.25
2022-10-22T04:41:30.565Z,97829.56
2022-10-22T04:43:58.061Z,97831.25
2022-10-22T04:46:27.347Z,97837.69
2022-10-22T04:48:55.194Z,97835.16
2022-10-22T04:51:26.633Z,97822.00
2022-10-22T04:53:53.853Z,97816.13
2022-10-22T04:56:24.992Z,97820.75
2022-10-22T04:59:04.829Z,97815.84
2022-10-22T05:01:42.806Z,97806.00
2022-10-22T05:04:17.156Z,97816.41
2022-10-22T05:06:45.175Z,97812.38
2022-10-22T05:09:15.073Z,97805.38
2022-10-22T05:11:48.466Z,97809.97
2022-10-22T05:14:18.303Z,97791.78
2022-10-22T05:16:48.497Z,97790.06
2022-10-22T05:19:25.301Z,97795.13
2022-10-22T05:21:53.906Z,97792.47
2022-10-22T05:24:21.114Z,97800.66
2022-10-22T05:26:56.072Z,97789.88
2022-10-22T05:29:23.663Z,97792.16
2022-10-22T05:31:50.801Z,97792.16
2022-10-22T05:34:20.072Z,97801.72
2022-10-22T05:36:48.710Z,97795.06
2022-10-22T05:39:15.498Z,97809.28
2022-10-22T05:41:42.109Z,97819.53
2022-10-22T05:44:11.425Z,97829.97
2022-10-22T05:46:38.127Z,97833.28
2022-10-22T05:49:06.482Z,97832.56
2022-10-22T05:51:35.710Z,97823.88
2022-10-22T05:54:08.128Z,97837.75
2022-10-22T05:56:35.662Z,97830.94
2022-10-22T06:01:32.268Z,97817.75
2022-10-22T06:04:01.781Z,97823.06
2022-10-22T06:06:35.935Z,97818.50
2022-10-22T06:09:13.446Z,97820.97
2022-10-22T06:11:40.309Z,97829.94
2022-10-22T06:14:07.141Z,97824.09
2022-10-22T06:16:33.876Z,97838.78
2022-10-22T06:19:04.105Z,97844.53
2022-10-22T06:21:32.285Z,97840.41
2022-10-22T06:24:00.762Z,97841.00
2022-10-22T06:26:28.784Z,97844.53
2022-10-22T06:28:56.767Z,97839.88
2022-10-22T06:31:25.219Z,97839.09
2022-10-22T06:33:52.174Z,97858.25
2022-10-22T06:36:22.547Z,97862.47
2022-10-22T06:38:54.038Z,97875.59
2022-10-22T06:41:24.259Z,97870.44
2022-10-22T06:43:54.561Z,97870.56
2022-10-22T06:46:22.335Z,97855.72
2022-10-22T06:48:51.015Z,97841.88
2022-10-22T06:51:18.381Z,97850.81
2022-10-22T06:53:45.806Z,97860.47
2022-10-22T06:56:15.169Z,97873.38
2022-10-22T06:58:42.102Z,97870.31
2022-10-22T07:01:14.070Z,97878.13
2022-10-22T07:03:41.682Z,97864.84
2022-10-22T07:06:11.803Z,97869.59
2022-10-22T07:08:39.469Z,97858.25
2022-10-22T07:11:10.468Z,97867.59
2022-10-22T07:13:37.850Z,97875.00
2022-10-22T07:16:06.542Z,97883.53
2022-10-22T07:18:34.952Z,97878.03
2022-10-22T07:21:02.346Z,97891.34
2022-10-22T07:23:30.502Z,97900.03
2022-10-22T07:28:30.026Z,97905.81
2022-10-22T07:30:56.797Z,97914.13
2022-10-22T07:33:23.517Z,97911.41
2022-10-22T07:35:50.217Z,97907.13
2022-10-22T07:38:16.892Z,97911.22
2022-10-22T07:40:43.552Z,97921.72
2022-10-22T07:43:10.233Z,97923.50
2022-10-22T07:45:37.004Z,97922.44
2022-10-22T07:48:03.814Z,97925.88
2022-10-22T07:50:30.673Z,97933.22
2022-10-22T07:52:58.274Z,97937.94
2022-10-22T07:55:26.559Z,97940.84
2022-10-22T07:57:53.618Z,97935.69
2022-10-22T08:00:23.188Z,97946.75
2022-10-22T08:02:52.494Z,97943.56
2022-10-22T08:05:19.728Z,97943.06
2022-10-22T08:07:46.447Z,97936.31
2022-10-22T08:10:14.198Z,97947.09
2022-10-22T08:12:41.304Z,97948.00
2022-10-22T08:15:09.486Z,97947.81
2022-10-22T08:17:36.434Z,97953.94
2022-10-22T08:20:04.479Z,97965.34
2022-10-22T08:22:31.633Z,97963.94
2022-10-22T08:24:59.126Z,97962.06
2022-10-22T08:27:26.117Z,97962.63
2022-10-22T08:29:52.730Z,97971.56
2022-10-22T08:32:19.621Z,97966.25
2022-10-22T08:34:46.200Z,97962.31
2022-10-22T08:37:14.439Z,97967.16
2022-10-22T08:39:41.668Z,97967.66
2022-10-22T08:42:28.679Z,97974.56
2022-10-22T08:45:31.244Z,97973.13
2022-10-22T08:48:16.208Z,97976.22
2022-10-22T08:50:49.588Z,97975.13
2022-10-22T08:53:22.127Z,97968.78
2022-10-22T08:55:49.954Z,97977.22
2022-10-22T08:58:35.532Z,97968.03
2022-10-22T09:01:09.908Z,97970.28
2022-10-22T09:03:43.972Z,97978.00
2022-10-22T09:06:16.936Z,97981.25
2022-10-22T09:08:45.842Z,97972.63
2022-10-22T09:11:12.636Z,97976.81
2022-10-22T09:13:42.310Z,97969.47
2022-10-22T09:16:17.692Z,97974.03
2022-10-22T09:18:52.155Z,97977.53
2022-10-22T09:21:26.116Z,97984.56
2022-10-22T09:24:12.720Z,97973.41
2022-10-22T09:26:42.280Z,97968.66
2022-10-22T09:29:18.363Z,97968.56
2022-10-22T09:31:45.244Z,97975.47
2022-10-22T09:34:15.737Z,97970.41
2022-10-22T09:36:42.388Z,97969.63
2022-10-22T09:39:35.560Z,97971.44
2022-10-22T09:42:02.699Z,97961.38
2022-10-22T09:44:33.901Z,97968.88
2022-10-22T09:47:04.536Z,97964.41
2022-10-22T09:49:34.881Z,97972.09
2022-10-22T09:52:02.322Z,97974.56
2022-10-22T09:54:32.093Z,97972.81
2022-10-22T09:57:17.559Z,97972.88
2022-10-22T09:59:48.280Z,97967.81
2022-10-22T10:02:43.982Z,97965.88
2022-10-22T10:05:19.550Z,97961.72
2022-10-22T10:07:49.448Z,97968.53
2022-10-22T10:10:43.831Z,97956.88
2022-10-22T10:13:13.864Z,97957.44
2022-10-22T10:15:51.423Z,97953.59
2022-10-22T10:18:34.868Z,97958.56
2022-10-22T10:21:22.292Z,97960.22
2022-10-22T10:24:03.473Z,97965.41
2022-10-22T10:26:39.970Z,97966.09
2022-10-22T10:29:44.947Z,97968.09
2022-10-22T10:32:50.533Z,97962.25
2022-10-22T10:35:37.042Z,97971.06
2022-10-22T10:38:31.625Z,97964.19
2022-10-22T10:41:27.251Z,97977.78
2022-10-22T10:44:12.808Z,97975.09
2022-10-22T10:47:17.121Z,97977.13
2022-10-22T10:49:44.392Z,97979.00
2022-10-22T10:52:30.746Z,97972.72
2022-10-22T10:55:22.776Z,97976.53
2022-10-22T10:58:05.412Z,97970.28
2022-10-22T11:00:43.044Z,97958.00
2022-10-22T11:03:20.997Z,97966.06
2022-10-22T11:06:06.559Z,97961.56
2022-10-22T11:08:36.560Z,97964.06
2022-10-22T11:11:18.418Z,97963.41
2022-10-22T11:13:57.932Z,97967.59
2022-10-22T11:16:35.317Z,97970.25
2022-10-22T11:19:49.725Z,97977.13
2022-10-22T11:22:27.083Z,97973.47
2022-10-22T11:25:35.125Z,97963.22
2022-10-22T11:28:45.250Z,97955.88
2022-10-22T11:31:18.660Z,97956.19
2022-10-22T11:34:04.669Z,97966.72
2022-10-22T11:36:33.923Z,97969.47
2022-10-22T11:39:03.748Z,97965.44
2022-10-22T11:41:33.127Z,97961.38
2022-10-22T11:44:12.122Z,97960.56
2022-10-22T11:47:09.631Z,97952.34
2022-10-22T11:49:55.669Z,97952.00
2022-10-22T11:52:31.469Z,97949.81
2022-10-22T11:55:02.192Z,97943.00
2022-10-22T11:57:37.747Z,97945.19
2022-10-22T12:00:41.442Z,97948.50
2022-10-22T12:03:23.727Z,97948.66
2022-10-22T12:06:12.297Z,97948.66
2022-10-22T12:09:05.788Z,97951.31
2022-10-22T12:11:37.553Z,97946.44
2022-10-22T12:14:36.099Z,97954.00
2022-10-22T12:17:14.804Z,97955.72
2022-10-22T12:19:49.784Z,97954.44
2022-10-22T12:22:38.056Z,97949.69
2022-10-22T12:25:22.332Z,97956.94
2022-10-22T12:27:55.602Z,97948.78
2022-10-22T12:30:33.194Z,97942.69
2022-10-22T12:33:03.601Z,97953.38
2022-10-22T12:35:33.988Z,97956.25
2022-10-22T12:38:03.081Z,97953.00
2022-10-22T12:40:33.895Z,97956.53
2022-10-22T12:43:03.105Z,97959.13
2022-10-22T12:45:31.926Z,97972.91
2022-10-22T12:48:02.392Z,97970.28
2022-10-22T12:50:38.711Z,97969.09
2022-10-22T12:53:13.700Z,97971.75
2022-10-22T12:55:41.295Z,97974.31
2022-10-22T12:58:08.258Z,97974.94
2022-10-22T13:00:35.799Z,97969.72
2022-10-22T13:03:05.980Z,97962.91
2022-10-22T13:05:39.068Z,97977.66
2022-10-22T13:08:10.779Z,97975.09
2022-10-22T13:10:48.971Z,97974.97
2022-10-22T13:13:32.622Z,97974.25
2022-10-22T13:16:25.162Z,97976.97
2022-10-22T13:18:52.658Z,97971.75
2022-10-22T13:21:38.912Z,97971.69
2022-10-22T13:24:23.929Z,97982.19
2022-10-22T13:26:54.210Z,97972.47
2022-10-22T13:29:23.539Z,97976.31
2022-10-22T13:31:52.536Z,97982.63
2022-10-22T13:34:24.852Z,97987.78
2022-10-22T13:36:51.568Z,97990.31
2022-10-22T13:39:25.244Z,97991.56
2022-10-22T13:41:51.975Z,97984.19
2022-10-22T13:44:19.883Z,97988.66
2022-10-22T13:46:48.621Z,97996.59
2022-10-22T13:49:18.208Z,97995.00
2022-10-22T13:51:45.271Z,97992.69
2022-10-22T13:54:19.040Z,97990.88
2022-10-22T13:56:53.377Z,97990.34
2022-10-22T13:59:22.974Z,97994.94
2022-10-22T14:01:51.627Z,98000.41
2022-10-22T14:04:18.723Z,97990.66
2022-10-22T14:06:45.450Z,97977.47
2022-10-22T14:09:15.490Z,97985.09
2022-10-22T14:11:43.088Z,97984.63
2022-10-22T14:14:14.110Z,97991.78
2022-10-22T14:16:41.651Z,97992.22
2022-10-22T14:19:15.144Z,97986.31
2022-10-22T14:21:42.083Z,97992.97
2022-10-22T14:24:12.998Z,97982.00
2022-10-22T14:26:40.612Z,97994.72
2022-10-22T14:29:09.677Z,97990.06
2022-10-22T14:34:16.421Z,97977.88
2022-10-22T14:36:46.352Z,97980.19
2022-10-22T14:39:14.082Z,97990.34
2022-10-22T14:41:41.397Z,97998.72
2022-10-22T14:44:12.771Z,97990.88
2022-10-22T14:46:42.804Z,98000.97
2022-10-22T14:49:09.881Z,98001.19
2022-10-22T14:51:37.506Z,98001.28
2022-10-22T14:54:04.576Z,98005.91
2022-10-22T14:56:31.736Z,98009.00
2022-10-22T14:58:58.729Z,98015.72
2022-10-22T15:01:27.646Z,98016.81
2022-10-22T15:03:54.565Z,98014.22
2022-10-22T15:06:21.238Z,98025.16
2022-10-22T15:08:48.150Z,98019.84
2022-10-22T15:11:17.365Z,98010.78
2022-10-22T15:13:44.058Z,98013.66
2022-10-22T15:16:15.896Z,98012.19
2022-10-22T15:18:42.689Z,98021.94
2022-10-22T15:21:16.630Z,98031.69
2022-10-22T15:23:43.937Z,98029.38
2022-10-22T15:26:12.412Z,98027.41
2022-10-22T15:28:40.072Z,98028.69
2022-10-22T15:31:07.780Z,98030.41
2022-10-22T15:33:34.585Z,98032.44
2022-10-22T15:36:11.975Z,98039.28
2022-10-22T15:38:38.838Z,98053.41
2022-10-22T15:41:07.110Z,98059.97
2022-10-22T15:43:34.914Z,98058.91
2022-10-22T15:46:17.697Z,98061.22
2022-10-22T15:48:46.412Z,98061.38
2022-10-22T15:51:19.244Z,98069.09
2022-10-22T15:53:53.848Z,98064.97
2022-10-22T15:56:21.373Z,98078.25
2022-10-22T15:58:53.444Z,98072.69
2022-10-22T16:01:20.297Z,98080.66
2022-10-22T16:03:47.413Z,98075.44
2022-10-22T16:06:14.272Z,98085.81
2022-10-22T16:08:40.985Z,98084.84
2022-10-22T16:11:07.826Z,98089.69
2022-10-22T16:13:36.860Z,98103.47
2022-10-22T16:16:10.345Z,98104.13
2022-10-22T16:18:36.975Z,98091.06
2022-10-22T16:21:03.828Z,98106.31
2022-10-22T16:23:30.680Z,98108.78
2022-10-22T16:25:57.330Z,98111.59
2022-10-22T16:28:24.049Z,98116.75
2022-10-22T16:30:50.792Z,98115.97
2022-10-22T16:33:17.776Z,98116.41
2022-10-22T16:35:44.404Z,98120.00
2022-10-22T16:38:12.331Z,98122.09
2022-10-22T16:40:41.923Z,98122.81
2022-10-22T16:43:08.583Z,98132.47
2022-10-22T16:45:35.223Z,98130.81
2022-10-22T16:48:01.887Z,98137.69
2022-10-22T16:50:28.702Z,98138.06
2022-10-22T16:52:55.418Z,98143.91
2022-10-22T16:55:22.245Z,98149.88
2022-10-22T16:58:03.946Z,98156.19
2022-10-22T17:00:30.805Z,98158.56
2022-10-22T17:02:57.729Z,98159.03
2022-10-22T17:05:24.447Z,98155.31
2022-10-22T17:07:51.615Z,98164.06
2022-10-22T17:10:20.603Z,98165.72
2022-10-22T17:12:48.971Z,98166.56
2022-10-22T17:15:15.907Z,98172.41
2022-10-22T17:17:43.106Z,98169.25
2022-10-22T17:20:11.663Z,98175.06
2022-10-22T17:22:38.587Z,98174.00
2022-10-22T17:25:15.912Z,98186.63
2022-10-22T17:27:44.336Z,98187.44
2022-10-22T17:30:24.817Z,98196.56
2022-10-22T17:32:54.321Z,98187.78
2022-10-22T17:35:21.514Z,98192.53
2022-10-22T17:37:48.387Z,98198.31
2022-10-22T17:40:15.863Z,98202.19
2022-10-22T17:42:45.535Z,98204.91
2022-10-22T17:45:12.422Z,98205.28
2022-10-22T17:47:39.630Z,98202.88
2022-10-22T17:50:06.955Z,98207.34
2022-10-22T17:52:33.627Z,98210.78
2022-10-22T17:55:00.664Z,98205.91
2022-10-22T17:57:27.672Z,98211.59
2022-10-22T17:59:54.427Z,98214.38
2022-10-22T18:02:21.094Z,98220.59
2022-10-22T18:04:52.339Z,98212.84
2022-10-22T18:07:20.696Z,98222.13
2022-10-22T18:09:47.814Z,98213.53
2022-10-22T18:12:15.019Z,98218.94
2022-10-22T18:14:41.779Z,98225.00
2022-10-22T18:17:08.498Z,98222.72
2022-10-22T18:19:35.980Z,98227.53
2022-10-22T18:22:03.491Z,98238.28
2022-10-22T18:24:30.078Z,98232.88
2022-10-22T18:26:56.834Z,98234.50
2022-10-22T18:29:23.514Z,98236.69
2022-10-22T18:31:53.243Z,98226.44
2022-10-22T18:34:23.001Z,98228.16
2022-10-22T18:36:53.273Z,98238.59
2022-10-22T18:39:20.079Z,98240.00
2022-10-22T18:41:47.409Z,98236.00
2022-10-22T18:44:15.494Z,98242.59
2022-10-22T18:46:45.335Z,98248.09
2022-10-22T18:49:19.658Z,98250.47
2022-10-22T18:51:52.456Z,98258.09
2022-10-22T18:54:23.622Z,98262.88
2022-10-22T18:56:51.050Z,98252.75
2022-10-22T18:59:24.904Z,98264.19
2022-10-22T19:01:55.989Z,98262.28
2022-10-22T19:04:23.185Z,98261.31
2022-10-22T19:06:50.557Z,98261.84
2022-10-22T19:09:17.845Z,98259.84
2022-10-22T19:11:45.640Z,98261.91
2022-10-22T19:14:13.483Z,98262.66
2022-10-22T19:16:40.193Z,98261.38
2022-10-22T19:19:08.089Z,98254.81
2022-10-22T19:21:34.909Z,98254.72
2022-10-22T19:24:02.215Z,98253.50
2022-10-22T19:26:30.715Z,98266.41
2022-10-22T19:28:58.864Z,98278.84
2022-10-22T19:31:27.401Z,98272.34
2022-10-22T19:33:57.136Z,98283.03
2022-10-22T19:36:25.326Z,98277.31
2022-10-22T19:38:52.022Z,98286.16
2022-10-22T19:41:21.731Z,98286.13
2022-10-22T19:43:50.820Z,98278.66
2022-10-22T19:46:18.952Z,98286.00
2022-10-22T19:51:15.822Z,98286.53
2022-10-22T19:53:43.030Z,98285.81
2022-10-22T19:56:11.691Z,98284.78
2022-10-22T19:58:39.362Z,98289.47
2022-10-22T20:01:12.853Z,98287.25
2022-10-22T20:03:40.226Z,98295.56
2022-10-22T20:06:09.208Z,98294.03
2022-10-22T20:08:38.409Z,98301.75
2022-10-22T20:11:07.129Z,98302.78
2022-10-22T20:13:35.412Z,98301.06
2022-10-22T20:16:03.315Z,98304.81
2022-10-22T20:18:30.174Z,98302.44
2022-10-22T20:20:56.961Z,98301.06
2022-10-22T20:23:24.162Z,98298.16
2022-10-22T20:25:51.216Z,98307.22
2022-10-22T20:28:18.717Z,98306.91
2022-10-22T20:30:46.434Z,98309.28
2022-10-22T20:33:16.031Z,98315.25
2022-10-22T20:35:42.825Z,98306.41
2022-10-22T20:38:13.719Z,98316.81
2022-10-22T20:40:40.459Z,98312.38
2022-10-22T20:43:10.511Z,98316.34
2022-10-22T20:45:39.055Z,98321.41
2022-10-22T20:48:06.109Z,98315.94
2022-10-22T20:50:33.404Z,98319.38
2022-10-22T20:53:00.144Z,98321.75
2022-10-22T20:55:27.684Z,98313.97
2022-10-22T20:57:54.346Z,98324.41
2022-10-22T21:00:21.182Z,98325.69
2022-10-22T21:02:47.867Z,98330.25
2022-10-22T21:05:14.512Z,98334.22
2022-10-22T21:07:42.464Z,98329.75
2022-10-22T21:10:09.792Z,98339.25
2022-10-22T21:12:36.427Z,98337.41
2022-10-22T21:15:04.156Z,98328.00
2022-10-22T21:17:31.359Z,98330.91
2022-10-22T21:19:57.955Z,98332.59
2022-10-22T21:22:25.059Z,98344.84
2022-10-22T21:24:52.431Z,98344.53
2022-10-22T21:27:21.731Z,98339.69
2022-10-22T21:29:49.641Z,98336.28
2022-10-22T21:32:16.176Z,98341.66
2022-10-22T21:34:42.654Z,98354.53
2022-10-22T21:37:09.355Z,98348.22
2022-10-22T21:39:41.105Z,98343.75
2022-10-22T21:42:09.231Z,98341.19
2022-10-22T21:44:35.981Z,98328.16
2022-10-22T21:47:03.163Z,98346.09
2022-10-22T21:49:29.810Z,98340.22
2022-10-22T21:51:56.520Z,98334.25
2022-10-22T21:54:23.192Z,98325.25
2022-10-22T21:56:50.473Z,98322.97
2022-10-22T21:59:17.570Z,98323.47
2022-10-22T22:01:44.284Z,98324.91
2022-10-22T22:04:10.927Z,98319.97
2022-10-22T22:06:37.557Z,98322.00
2022-10-22T22:09:04.866Z,98325.75
2022-10-22T22:11:32.721Z,98332.06
2022-10-22T22:13:59.611Z,98327.63
2022-10-22T22:16:31.516Z,98335.06
2022-10-22T22:21:31.215Z,98324.09
2022-10-22T22:23:58.836Z,98329.28
2022-10-22T22:26:29.680Z,98325.22
2022-10-22T22:28:58.487Z,98338.00
2022-10-22T22:31:32.204Z,98338.41
2022-10-22T22:34:13.295Z,98341.94
2022-10-22T22:36:49.605Z,98343.75
2022-10-22T22:39:22.681Z,98333.09
2022-10-22T22:41:49.888Z,98334.50
2022-10-22T22:44:16.834Z,98328.44
2022-10-22T22:46:44.455Z,98340.25
2022-10-22T22:49:13.259Z,98332.75
2022-10-22T22:51:39.855Z,98330.84
2022-10-22T22:54:07.271Z,98330.63
2022-10-22T22:56:34.705Z,98329.94
2022-10-22T22:59:01.535Z,98328.13
2022-10-22T23:01:33.817Z,98322.84
2022-10-22T23:04:03.719Z,98328.03
2022-10-22T23:06:34.804Z,98328.31
2022-10-22T23:09:02.664Z,98323.25
2022-10-22T23:11:30.734Z,98338.16
2022-10-22T23:14:01.370Z,98324.53
2022-10-22T23:16:31.418Z,98326.66
2022-10-22T23:18:59.886Z,98331.00
2022-10-22T23:21:34.025Z,98323.94
2022-10-22T23:24:03.980Z,98319.31
2022-10-22T23:26:33.153Z,98325.50
2022-10-22T23:29:01.657Z,98325.94
2022-10-22T23:31:28.878Z,98320.59
2022-10-22T23:33:56.229Z,98318.75
2022-10-22T23:36:22.938Z,98327.88
2022-10-22T23:38:51.748Z,98323.22
2022-10-22T23:41:18.621Z,98329.53
2022-10-22T23:43:45.435Z,98320.28
2022-10-22T23:46:13.648Z,98326.03
2022-10-22T23:48:41.022Z,98323.50
2022-10-22T23:51:10.252Z,98327.03
2022-10-22T23:53:37.275Z,98316.50
2022-10-22T23:56:06.869Z,98324.88
2022-10-22T23:58:34.298Z,98320.94
